Terminal Aerodrome Forecast
Issued by NWS Cleveland, OH

Home | Current Version | Previous Version | Graphics & Text | Print | Product List | Glossary Off
Versions: 1 2 3 4 5 6 7 8 9 10 11 12 13 14 15 16 17 18 19 20 21 22 23

016
FTUS41 KCLE 232332
TAFYNG
TAF
KYNG 232332Z 2400/2424 28004KT P6SM BKN035
     FM240100 VRB03KT 5SM -SHRA VCTS BKN025CB
     FM240800 15005KT P6SM OVC027
     FM241100 17006KT P6SM BKN045
     FM241700 19014KT P6SM SCT045=

USA.gov is the U.S. government's official web portal to all federal, state and local government web resources and services.